Time;durP1;ratioP1;P1;durP2;ratioP2;P2;SDS_P1;SDS_P2;PMS_P1;PMS_P2;Temp;Humidity;BMP_temperature;BMP_pressure;BME280_temperature;BME280_humidity;BME280_pressure;Samples;Min_cycle;Max_cycle;Signal;HPM_P1;HPM_P2
2023/10/31 00:00:00;;;;;;;5.10;2.72;;;16.30;99.90;;;;;;5033167;28;20111;-79
2023/10/31 00:02:26;;;;;;;6.15;3.63;;;16.30;99.90;;;;;;5040304;28;20078;-80
2023/10/31 00:04:51;;;;;;;6.47;3.00;;;16.30;99.90;;;;;;5037841;28;20377;-79
2023/10/31 00:07:17;;;;;;;4.93;2.92;;;16.30;99.90;;;;;;5043203;28;20042;-79
2023/10/31 00:09:43;;;;;;;7.38;2.78;;;16.30;99.90;;;;;;5040032;28;20033;-79
2023/10/31 00:12:08;;;;;;;4.97;2.97;;;16.30;99.90;;;;;;5039590;28;20037;-79
2023/10/31 00:14:34;;;;;;;5.57;2.78;;;16.20;99.90;;;;;;5038465;28;20036;-79
2023/10/31 00:17:00;;;;;;;7.35;3.17;;;16.20;99.90;;;;;;5042143;28;20026;-79
2023/10/31 00:19:25;;;;;;;8.05;2.83;;;16.20;99.90;;;;;;5043059;28;20038;-79
2023/10/31 00:21:51;;;;;;;5.30;3.00;;;16.20;99.90;;;;;;5041428;28;20066;-79
2023/10/31 00:24:17;;;;;;;6.00;3.10;;;16.20;99.90;;;;;;5038951;28;20119;-79
2023/10/31 00:26:42;;;;;;;8.98;3.53;;;16.10;99.90;;;;;;5036862;28;20060;-78
2023/10/31 00:29:08;;;;;;;4.28;2.45;;;16.10;99.90;;;;;;5038452;28;20291;-79
2023/10/31 00:31:40;;;;;;;5.00;2.97;;;16.10;99.90;;;;;;5039558;28;20482;-79
2023/10/31 00:34:07;;;;;;;3.50;3.10;;;16.10;99.90;;;;;;5039810;28;20036;-79
2023/10/31 00:36:33;;;;;;;9.32;2.83;;;16.10;99.90;;;;;;5041629;28;20484;-79
2023/10/31 00:38:59;;;;;;;8.60;3.03;;;16.10;99.90;;;;;;5033688;28;20037;-79
2023/10/31 00:41:25;;;;;;;3.08;2.72;;;16.10;99.90;;;;;;5039853;28;20044;-79
2023/10/31 00:43:50;;;;;;;8.60;3.08;;;16.00;99.90;;;;;;5039020;28;20116;-79
2023/10/31 00:46:16;;;;;;;4.28;2.88;;;16.10;99.90;;;;;;5041153;28;20037;-79
2023/10/31 00:48:42;;;;;;;5.72;3.08;;;16.00;99.90;;;;;;5037402;28;20086;-79
2023/10/31 00:51:07;;;;;;;3.97;2.75;;;16.00;99.90;;;;;;5035097;28;20493;-79
2023/10/31 00:53:33;;;;;;;6.28;2.75;;;16.00;99.90;;;;;;5039645;28;20484;-79
2023/10/31 00:55:59;;;;;;;4.15;2.53;;;16.00;99.90;;;;;;5038704;28;20404;-79
2023/10/31 00:58:24;;;;;;;9.52;3.10;;;16.00;99.90;;;;;;5038867;28;20215;-79
2023/10/31 01:00:50;;;;;;;8.05;3.05;;;16.00;99.90;;;;;;5040629;28;20022;-79
2023/10/31 01:03:16;;;;;;;4.90;2.63;;;16.10;99.90;;;;;;5037297;28;20028;-79
2023/10/31 01:05:41;;;;;;;5.30;3.03;;;16.00;99.90;;;;;;5039251;28;20060;-79
2023/10/31 01:08:07;;;;;;;7.07;3.00;;;16.00;99.90;;;;;;5039927;28;20108;-79
2023/10/31 01:10:33;;;;;;;6.70;2.75;;;16.00;99.90;;;;;;5037561;28;20029;-79
2023/10/31 01:12:58;;;;;;;6.13;3.28;;;16.00;99.90;;;;;;5040004;28;20036;-79
2023/10/31 01:15:24;;;;;;;7.13;2.78;;;16.00;99.90;;;;;;5038158;28;20029;-79
2023/10/31 01:17:50;;;;;;;3.13;2.78;;;16.00;99.90;;;;;;5036495;28;20061;-79
2023/10/31 01:20:15;;;;;;;6.78;2.90;;;16.00;99.90;;;;;;5038108;28;20545;-79
2023/10/31 01:22:41;;;;;;;12.38;3.03;;;16.00;99.90;;;;;;5039496;28;20021;-79
2023/10/31 01:25:07;;;;;;;3.50;2.75;;;16.00;99.90;;;;;;5036663;28;20017;-79
2023/10/31 01:27:33;;;;;;;3.30;2.25;;;16.00;99.90;;;;;;5039548;28;20389;-79
2023/10/31 01:29:58;;;;;;;5.07;2.30;;;16.00;99.90;;;;;;5037003;28;20052;-79
2023/10/31 01:32:24;;;;;;;4.53;2.92;;;16.00;99.90;;;;;;5040060;28;20093;-79
2023/10/31 01:34:50;;;;;;;9.23;2.78;;;16.00;99.90;;;;;;5040576;28;20137;-79
2023/10/31 01:37:15;;;;;;;7.35;3.17;;;16.00;99.90;;;;;;5037700;28;20061;-78
2023/10/31 01:39:41;;;;;;;5.43;2.53;;;16.00;99.90;;;;;;5039251;28;20111;-79
2023/10/31 01:42:07;;;;;;;4.60;2.72;;;16.00;99.90;;;;;;5038873;28;20053;-78
2023/10/31 01:44:33;;;;;;;4.25;2.30;;;16.00;99.90;;;;;;5037327;28;20021;-78
2023/10/31 01:46:58;;;;;;;3.03;2.55;;;15.90;99.90;;;;;;5039395;28;20163;-79
2023/10/31 01:49:24;;;;;;;8.02;2.13;;;15.90;99.90;;;;;;5037433;28;20025;-79
2023/10/31 01:51:51;;;;;;;10.18;3.58;;;15.90;99.90;;;;;;5038215;28;20029;-79
2023/10/31 01:54:17;;;;;;;4.30;2.42;;;15.90;99.90;;;;;;5037924;28;20488;-78
2023/10/31 01:56:44;;;;;;;3.90;2.05;;;15.90;99.90;;;;;;5038470;28;20161;-78
2023/10/31 01:59:10;;;;;;;6.25;2.38;;;15.90;99.90;;;;;;5032319;28;20028;-78
2023/10/31 02:01:42;;;;;;;8.93;3.15;;;15.90;99.90;;;;;;5037765;28;20053;-79
2023/10/31 02:04:07;;;;;;;8.55;3.08;;;15.90;99.90;;;;;;5037569;28;20017;-78
2023/10/31 02:06:33;;;;;;;5.63;2.20;;;15.90;99.90;;;;;;5040030;28;20035;-79
2023/10/31 02:08:59;;;;;;;3.85;1.85;;;15.90;99.90;;;;;;5037736;28;20029;-79
2023/10/31 02:11:25;;;;;;;4.75;2.65;;;15.80;99.90;;;;;;5035247;28;20148;-79
2023/10/31 02:13:50;;;;;;;6.95;2.70;;;15.80;99.90;;;;;;5038121;28;20025;-79
2023/10/31 02:16:16;;;;;;;6.07;2.75;;;15.80;99.90;;;;;;5037867;28;20128;-79
2023/10/31 02:18:42;;;;;;;4.28;2.63;;;15.80;99.90;;;;;;5037713;28;20025;-79
2023/10/31 02:21:08;;;;;;;4.13;2.30;;;15.70;99.90;;;;;;5039120;28;20419;-79
2023/10/31 02:23:34;;;;;;;4.15;2.28;;;15.70;99.90;;;;;;5036545;28;20128;-79
2023/10/31 02:25:59;;;;;;;7.05;2.58;;;15.70;99.90;;;;;;5037705;28;20247;-79
2023/10/31 02:28:27;;;;;;;6.05;2.65;;;15.60;99.90;;;;;;5037893;28;20057;-79
2023/10/31 02:30:54;;;;;;;6.78;2.58;;;15.60;99.90;;;;;;5035565;28;20017;-79
2023/10/31 02:33:20;;;;;;;4.55;2.25;;;15.60;99.90;;;;;;5036230;28;20021;-79
2023/10/31 02:35:46;;;;;;;5.78;2.47;;;15.60;99.90;;;;;;5037707;28;20025;-79
2023/10/31 02:38:11;;;;;;;6.45;2.33;;;15.60;99.90;;;;;;5037401;28;20610;-79
2023/10/31 02:40:37;;;;;;;2.72;1.90;;;15.60;99.90;;;;;;5037313;28;20095;-79
2023/10/31 02:43:03;;;;;;;9.07;2.75;;;15.50;99.90;;;;;;5038552;28;20085;-79
2023/10/31 02:45:28;;;;;;;5.50;2.20;;;15.50;99.90;;;;;;5037197;28;20030;-79
2023/10/31 02:47:55;;;;;;;7.82;2.10;;;15.50;99.90;;;;;;5038941;28;20109;-79
2023/10/31 02:50:21;;;;;;;3.38;2.00;;;15.50;99.90;;;;;;5037749;28;20204;-79
2023/10/31 02:52:46;;;;;;;5.57;2.40;;;15.50;99.90;;;;;;5037080;28;20035;-79
2023/10/31 02:55:12;;;;;;;9.68;2.55;;;15.40;99.90;;;;;;5035089;28;20022;-79
2023/10/31 02:57:38;;;;;;;6.97;2.33;;;15.40;99.90;;;;;;5039106;28;20037;-79
2023/10/31 03:00:04;;;;;;;6.57;2.13;;;15.40;99.90;;;;;;5034803;28;20436;-79
2023/10/31 03:02:30;;;;;;;10.45;2.45;;;15.40;99.90;;;;;;5037600;28;20396;-79
2023/10/31 03:04:56;;;;;;;7.40;2.40;;;15.40;99.90;;;;;;5035466;28;20021;-79
2023/10/31 03:07:21;;;;;;;5.53;2.25;;;15.40;99.90;;;;;;5034382;28;20057;-79
2023/10/31 03:09:47;;;;;;;3.83;2.60;;;15.40;99.90;;;;;;5034573;28;20025;-79
2023/10/31 03:12:12;;;;;;;6.38;2.60;;;15.40;99.90;;;;;;5036716;28;20042;-79
2023/10/31 03:14:38;;;;;;;5.35;2.28;;;15.40;99.90;;;;;;5035515;28;20067;-79
2023/10/31 03:17:04;;;;;;;5.30;2.22;;;15.40;99.90;;;;;;5035221;28;20220;-79
2023/10/31 03:19:29;;;;;;;5.57;2.40;;;15.40;99.90;;;;;;5035268;28;20026;-79
2023/10/31 03:21:55;;;;;;;8.10;2.28;;;15.40;99.90;;;;;;5038600;28;20497;-79
2023/10/31 03:24:21;;;;;;;6.28;2.25;;;15.50;99.90;;;;;;5041324;28;20022;-79
2023/10/31 03:26:46;;;;;;;11.15;2.40;;;15.50;99.90;;;;;;5039355;28;20036;-79
2023/10/31 03:29:12;;;;;;;6.18;2.05;;;15.50;99.90;;;;;;5039112;28;20025;-79
2023/10/31 03:31:38;;;;;;;5.15;1.80;;;15.40;99.90;;;;;;5035076;28;20488;-79
2023/10/31 03:34:03;;;;;;;5.55;1.73;;;15.40;99.90;;;;;;5042069;28;20480;-79
2023/10/31 03:36:30;;;;;;;3.70;2.10;;;15.50;99.90;;;;;;5041178;28;20029;-79
2023/10/31 03:38:56;;;;;;;6.38;2.17;;;15.40;99.90;;;;;;5038955;28;20504;-79
2023/10/31 03:41:21;;;;;;;8.25;2.22;;;15.40;99.90;;;;;;5041639;28;20037;-79
2023/10/31 03:43:47;;;;;;;2.85;1.60;;;15.40;99.90;;;;;;5039776;28;20029;-79
2023/10/31 03:46:13;;;;;;;5.75;1.60;;;15.50;99.90;;;;;;5042156;28;20040;-79
2023/10/31 03:48:38;;;;;;;6.60;1.85;;;15.50;99.90;;;;;;5039638;28;20032;-79
2023/10/31 03:51:04;;;;;;;4.55;1.67;;;15.40;99.90;;;;;;5040905;28;20492;-79
2023/10/31 03:53:30;;;;;;;3.38;1.80;;;15.50;99.90;;;;;;5039339;28;20498;-79
2023/10/31 03:55:55;;;;;;;6.00;1.58;;;15.40;99.90;;;;;;5040999;28;20029;-79
2023/10/31 03:58:21;;;;;;;4.43;1.75;;;15.50;99.90;;;;;;5039268;28;20025;-79
2023/10/31 04:00:47;;;;;;;6.10;2.13;;;15.40;99.90;;;;;;5041662;28;20026;-79
2023/10/31 04:03:13;;;;;;;8.20;2.15;;;15.40;99.90;;;;;;5039471;28;20098;-79
2023/10/31 04:05:38;;;;;;;3.05;1.92;;;15.40;99.90;;;;;;5039221;28;20431;-79
2023/10/31 04:08:04;;;;;;;2.85;1.63;;;15.40;99.90;;;;;;5042047;28;20437;-79
2023/10/31 04:10:30;;;;;;;3.90;1.75;;;15.40;99.90;;;;;;5040521;28;20033;-79
2023/10/31 04:12:55;;;;;;;6.97;1.70;;;15.40;99.90;;;;;;5038838;28;20684;-79
2023/10/31 04:15:21;;;;;;;5.75;1.48;;;15.50;99.90;;;;;;5040573;28;20025;-79
2023/10/31 04:17:47;;;;;;;3.95;1.55;;;15.50;99.90;;;;;;5037394;28;20021;-79
2023/10/31 04:20:12;;;;;;;3.30;1.67;;;15.50;99.90;;;;;;5038452;28;20074;-79
2023/10/31 04:22:38;;;;;;;6.03;2.10;;;15.50;99.90;;;;;;5039883;27;20029;-79
2023/10/31 04:25:05;;;;;;;6.00;1.90;;;15.50;99.90;;;;;;5040972;28;20025;-79
2023/10/31 04:27:30;;;;;;;4.22;1.73;;;15.60;99.90;;;;;;5037694;28;20014;-79
2023/10/31 04:29:56;;;;;;;2.60;1.55;;;15.60;99.90;;;;;;5039843;28;20036;-79
2023/10/31 04:32:22;;;;;;;2.78;1.42;;;15.60;99.90;;;;;;5038301;28;20568;-79
2023/10/31 04:34:47;;;;;;;7.75;1.88;;;15.50;99.90;;;;;;5039533;28;20021;-79
2023/10/31 04:37:13;;;;;;;5.35;1.95;;;15.50;99.90;;;;;;5038102;28;20136;-78
2023/10/31 04:39:39;;;;;;;5.70;1.98;;;15.50;99.90;;;;;;5041924;28;20136;-79
2023/10/31 04:42:05;;;;;;;3.90;1.95;;;15.40;99.90;;;;;;5037412;28;20034;-79
2023/10/31 04:44:31;;;;;;;5.32;1.92;;;15.50;99.90;;;;;;5041100;28;20032;-79
2023/10/31 04:46:56;;;;;;;10.70;3.25;;;15.40;99.90;;;;;;5040072;28;20028;-79
2023/10/31 04:49:22;;;;;;;10.02;2.80;;;15.40;99.90;;;;;;5037406;28;20116;-79
2023/10/31 04:51:48;;;;;;;5.05;2.45;;;15.40;99.90;;;;;;5038591;28;20034;-79
2023/10/31 04:54:14;;;;;;;4.55;2.10;;;15.40;99.90;;;;;;5041516;28;20025;-79
2023/10/31 04:56:39;;;;;;;8.75;2.50;;;15.40;99.90;;;;;;5037964;28;20025;-79
2023/10/31 04:59:05;;;;;;;6.30;2.40;;;15.30;99.90;;;;;;5036219;28;20116;-79
2023/10/31 05:01:31;;;;;;;6.30;2.35;;;15.40;99.90;;;;;;5037744;28;20393;-79
2023/10/31 05:03:56;;;;;;;6.60;2.35;;;15.30;99.90;;;;;;5040362;28;20477;-79
2023/10/31 05:06:22;;;;;;;5.88;2.38;;;15.30;99.90;;;;;;5041254;28;20025;-79
2023/10/31 05:08:49;;;;;;;6.72;1.80;;;15.20;99.90;;;;;;5038251;28;20025;-79
2023/10/31 05:11:18;;;;;;;4.25;1.80;;;15.10;99.90;;;;;;5038274;28;20077;-79
2023/10/31 05:13:47;;;;;;;2.83;1.85;;;15.10;99.90;;;;;;5040007;28;20035;-79
2023/10/31 05:16:13;;;;;;;7.40;2.47;;;15.20;99.90;;;;;;5037438;28;21920;-79
2023/10/31 05:18:38;;;;;;;5.40;2.10;;;15.20;99.90;;;;;;5038792;28;20128;-79
2023/10/31 05:21:05;;;;;;;5.65;2.10;;;15.30;99.90;;;;;;5039101;28;20476;-79
2023/10/31 05:23:30;;;;;;;6.22;2.40;;;15.30;99.90;;;;;;5036970;28;20021;-79
2023/10/31 05:25:56;;;;;;;2.72;1.73;;;15.30;99.90;;;;;;5040008;28;20024;-79
2023/10/31 05:28:23;;;;;;;5.70;2.22;;;15.30;99.90;;;;;;5037482;28;20033;-79
2023/10/31 05:30:49;;;;;;;4.53;2.00;;;15.40;99.90;;;;;;5040914;28;20082;-79
2023/10/31 05:33:16;;;;;;;4.00;2.25;;;15.40;99.90;;;;;;5037478;28;20049;-79
2023/10/31 05:35:41;;;;;;;4.95;2.08;;;15.40;99.90;;;;;;5040936;28;20028;-79
2023/10/31 05:38:07;;;;;;;8.75;2.67;;;15.40;99.90;;;;;;5036815;28;20045;-79
2023/10/31 05:40:35;;;;;;;3.50;2.10;;;15.30;99.90;;;;;;5038581;28;20036;-79
2023/10/31 05:43:01;;;;;;;5.35;2.17;;;15.30;99.90;;;;;;5038718;28;20583;-79
2023/10/31 05:45:27;;;;;;;6.22;2.63;;;15.30;99.90;;;;;;5035365;28;20026;-79
2023/10/31 05:47:52;;;;;;;5.10;2.45;;;15.30;99.90;;;;;;5033380;28;20021;-79
2023/10/31 05:50:18;;;;;;;4.38;2.67;;;15.30;99.90;;;;;;5038491;28;20029;-79
2023/10/31 05:52:44;;;;;;;9.43;3.58;;;15.30;99.90;;;;;;5039199;28;20028;-80
2023/10/31 05:55:10;;;;;;;5.22;2.95;;;15.30;99.90;;;;;;5038850;28;20028;-79
2023/10/31 05:57:35;;;;;;;4.45;2.42;;;15.30;99.90;;;;;;5036163;28;20037;-79
2023/10/31 06:00:01;;;;;;;5.53;2.58;;;15.30;99.90;;;;;;5033526;28;20037;-79
2023/10/31 06:02:26;;;;;;;4.50;2.60;;;15.20;99.90;;;;;;5036890;28;20022;-78
2023/10/31 06:04:52;;;;;;;4.72;2.08;;;15.30;99.90;;;;;;5037525;28;20025;-78
2023/10/31 06:07:18;;;;;;;6.43;2.22;;;15.30;99.90;;;;;;5038529;28;20029;-79
2023/10/31 06:09:43;;;;;;;4.80;2.30;;;15.30;99.90;;;;;;5036262;28;20025;-79
2023/10/31 06:12:09;;;;;;;8.55;2.38;;;15.30;99.90;;;;;;5036483;28;20029;-80
2023/10/31 06:14:35;;;;;;;6.30;2.92;;;15.40;99.90;;;;;;5039551;28;20067;-80
2023/10/31 06:17:01;;;;;;;11.80;2.85;;;15.40;99.90;;;;;;5033227;28;20036;-79
2023/10/31 06:19:26;;;;;;;3.40;2.17;;;15.40;99.90;;;;;;5033732;28;20025;-79
2023/10/31 06:21:52;;;;;;;6.07;2.63;;;15.40;99.90;;;;;;5035796;28;20440;-79
2023/10/31 06:24:18;;;;;;;7.50;2.67;;;15.40;99.90;;;;;;5039892;28;20445;-79
2023/10/31 06:26:43;;;;;;;6.20;2.75;;;15.40;99.90;;;;;;5036759;28;20120;-79
2023/10/31 06:29:09;;;;;;;5.13;2.40;;;15.40;99.90;;;;;;5035678;28;20044;-79
2023/10/31 06:31:35;;;;;;;4.43;2.10;;;15.40;99.90;;;;;;5038327;28;20025;-79
2023/10/31 06:34:01;;;;;;;5.60;2.20;;;15.40;99.90;;;;;;5035369;28;20017;-79
2023/10/31 06:36:26;;;;;;;5.65;4.03;;;15.40;99.90;;;;;;5035821;28;20036;-79
2023/10/31 06:38:52;;;;;;;7.68;2.95;;;15.40;99.90;;;;;;5037691;28;20036;-79
2023/10/31 06:41:17;;;;;;;3.95;2.13;;;15.40;99.90;;;;;;5037615;28;20025;-79
2023/10/31 06:43:43;;;;;;;6.05;2.42;;;15.40;99.90;;;;;;5035897;28;20434;-79
2023/10/31 06:46:09;;;;;;;6.05;2.17;;;15.40;99.90;;;;;;5038794;28;20032;-79
2023/10/31 06:48:34;;;;;;;7.63;2.47;;;15.30;99.90;;;;;;5035884;28;20071;-78
2023/10/31 06:51:00;;;;;;;7.25;2.75;;;15.40;99.90;;;;;;5040707;28;20165;-78
2023/10/31 06:53:26;;;;;;;4.78;2.30;;;15.30;99.90;;;;;;5037885;28;20104;-78
2023/10/31 06:55:51;;;;;;;4.97;2.08;;;15.30;99.90;;;;;;5038300;28;20025;-78
2023/10/31 06:58:17;;;;;;;8.65;2.20;;;15.30;99.90;;;;;;5038336;28;20087;-78
2023/10/31 07:00:43;;;;;;;4.47;2.10;;;15.30;99.90;;;;;;5041346;28;20022;-78
2023/10/31 07:03:11;;;;;;;4.13;2.08;;;15.30;99.90;;;;;;5040665;28;20474;-78
2023/10/31 07:05:37;;;;;;;2.80;1.65;;;15.30;99.90;;;;;;5041476;28;20021;-78
2023/10/31 07:08:03;;;;;;;3.15;2.00;;;15.20;99.90;;;;;;5034791;28;20491;-78
2023/10/31 07:10:29;;;;;;;6.03;2.70;;;15.30;99.90;;;;;;5042559;28;20040;-78
2023/10/31 07:12:55;;;;;;;7.82;2.53;;;15.30;99.90;;;;;;5040860;28;20025;-78
2023/10/31 07:15:21;;;;;;;7.47;2.03;;;15.30;99.90;;;;;;5040632;28;20030;-78
2023/10/31 07:17:47;;;;;;;7.00;2.10;;;15.30;99.90;;;;;;5035456;28;20025;-78
2023/10/31 07:20:13;;;;;;;4.25;1.80;;;15.20;99.90;;;;;;5042028;28;20111;-78
2023/10/31 07:22:39;;;;;;;3.20;1.73;;;15.20;99.90;;;;;;5039318;28;20445;-78
2023/10/31 07:25:06;;;;;;;4.15;2.10;;;15.30;99.90;;;;;;5040529;28;20053;-78
2023/10/31 07:27:32;;;;;;;6.43;2.58;;;15.30;99.90;;;;;;5041003;28;20032;-78
2023/10/31 07:29:58;;;;;;;7.10;1.80;;;15.40;99.90;;;;;;5042500;28;20383;-78
2023/10/31 07:32:24;;;;;;;7.65;2.20;;;15.40;99.90;;;;;;5034916;28;20078;-78
2023/10/31 07:34:49;;;;;;;7.22;2.42;;;15.40;99.90;;;;;;5040886;28;20093;-78
2023/10/31 07:37:15;;;;;;;6.80;2.70;;;15.40;99.90;;;;;;5041596;28;20045;-78
2023/10/31 07:39:42;;;;;;;7.60;2.05;;;15.50;99.90;;;;;;5042519;28;20025;-78
2023/10/31 07:42:07;;;;;;;4.20;2.40;;;15.50;99.90;;;;;;5038326;28;20054;-78
2023/10/31 07:44:33;;;;;;;5.57;1.90;;;15.60;99.90;;;;;;5041308;28;20060;-78
2023/10/31 07:46:59;;;;;;;2.65;1.70;;;15.60;99.90;;;;;;5039413;28;20033;-78
2023/10/31 07:49:25;;;;;;;6.82;2.20;;;15.60;99.90;;;;;;5039688;28;20025;-78
2023/10/31 07:51:50;;;;;;;4.65;2.13;;;15.60;99.90;;;;;;5041097;28;20025;-79
2023/10/31 07:54:21;;;;;;;6.38;2.25;;;15.70;99.90;;;;;;5038256;28;20021;-78
2023/10/31 07:56:46;;;;;;;1.58;1.10;;;15.70;99.90;;;;;;5040398;28;20033;-78
2023/10/31 07:59:12;;;;;;;1.98;1.10;;;15.50;99.90;;;;;;5037403;28;20026;-78
2023/10/31 08:01:38;;;;;;;1.20;1.20;;;15.40;99.90;;;;;;5041748;28;20565;-79
2023/10/31 08:04:03;;;;;;;3.53;1.80;;;15.40;99.90;;;;;;5040557;28;20442;-78
2023/10/31 08:06:29;;;;;;;3.38;1.80;;;15.30;99.90;;;;;;5043389;28;20096;-78
2023/10/31 08:08:55;;;;;;;1.85;1.75;;;15.20;99.90;;;;;;5037436;28;20037;-78
2023/10/31 08:11:20;;;;;;;2.47;1.85;;;15.20;99.90;;;;;;5042319;28;20052;-78
2023/10/31 08:13:46;;;;;;;2.63;1.48;;;15.10;99.90;;;;;;5039527;28;20055;-78
2023/10/31 08:16:19;;;;;;;1.33;1.23;;;14.90;99.90;;;;;;5043272;28;20028;-78
2023/10/31 08:18:47;;;;;;;1.77;1.35;;;14.80;99.90;;;;;;5041683;28;20021;-78
2023/10/31 08:21:12;;;;;;;1.13;1.02;;;14.70;99.90;;;;;;5039723;28;20018;-78
2023/10/31 08:23:38;;;;;;;1.05;1.05;;;14.70;99.90;;;;;;5042136;28;20494;-78
2023/10/31 08:26:04;;;;;;;1.00;1.00;;;14.70;99.90;;;;;;5035049;28;20021;-78
2023/10/31 08:28:30;;;;;;;1.00;1.00;;;14.70;99.90;;;;;;5039652;28;20018;-78
2023/10/31 08:30:57;;;;;;;2.28;2.17;;;14.70;99.90;;;;;;5041965;28;20056;-79
2023/10/31 08:33:22;;;;;;;1.55;1.48;;;14.80;99.90;;;;;;5042692;28;20025;-78
2023/10/31 08:35:48;;;;;;;1.30;1.20;;;14.80;99.90;;;;;;5038634;28;20029;-78
2023/10/31 08:38:14;;;;;;;0.85;0.85;;;14.80;99.90;;;;;;5039668;28;20516;-78
2023/10/31 08:40:41;;;;;;;1.27;0.80;;;14.90;99.90;;;;;;5041572;28;20021;-78
2023/10/31 08:43:07;;;;;;;2.15;1.25;;;14.90;99.90;;;;;;5037797;28;20021;-78
2023/10/31 08:45:33;;;;;;;1.05;0.88;;;14.90;99.90;;;;;;5038011;28;20355;-78
2023/10/31 08:47:59;;;;;;;1.00;0.77;;;14.70;99.90;;;;;;5034220;28;20401;-78
2023/10/31 08:50:25;;;;;;;1.23;1.08;;;14.70;99.90;;;;;;5040174;28;20017;-78
2023/10/31 08:52:51;;;;;;;0.90;0.90;;;14.80;99.90;;;;;;5039368;28;20456;-78
2023/10/31 08:55:17;;;;;;;0.73;0.73;;;14.80;99.90;;;;;;5038148;28;20029;-78
2023/10/31 08:57:43;;;;;;;0.90;0.90;;;14.90;99.90;;;;;;5040455;28;20135;-78
2023/10/31 09:00:09;;;;;;;0.80;0.80;;;14.90;99.90;;;;;;5041398;28;20456;-78
2023/10/31 09:02:35;;;;;;;1.60;1.00;;;15.00;99.90;;;;;;5034841;28;20022;-78
2023/10/31 09:05:00;;;;;;;0.90;0.90;;;15.10;99.90;;;;;;5036861;28;20452;-78
2023/10/31 09:07:26;;;;;;;2.70;1.10;;;15.10;99.90;;;;;;5041379;28;20028;-78
2023/10/31 09:09:52;;;;;;;1.27;0.80;;;15.10;99.90;;;;;;5037423;28;20037;-79
2023/10/31 09:12:21;;;;;;;0.93;0.70;;;15.10;99.90;;;;;;5039739;28;20029;-78
2023/10/31 09:14:46;;;;;;;1.00;1.00;;;15.20;99.90;;;;;;5039001;28;20489;-78
2023/10/31 09:17:12;;;;;;;3.83;0.95;;;15.10;99.90;;;;;;5039090;28;20061;-78
2023/10/31 09:19:38;;;;;;;1.55;1.00;;;15.10;99.90;;;;;;5036406;28;20032;-78
2023/10/31 09:22:06;;;;;;;0.88;0.88;;;15.10;99.90;;;;;;5041139;28;20097;-78
2023/10/31 09:24:33;;;;;;;0.70;0.70;;;14.90;99.90;;;;;;5038846;28;20032;-78
2023/10/31 09:26:59;;;;;;;0.70;0.70;;;14.80;99.90;;;;;;5040685;28;20029;-78
2023/10/31 09:29:25;;;;;;;0.60;0.60;;;14.70;99.90;;;;;;5035744;28;20025;-78
2023/10/31 09:31:50;;;;;;;0.90;0.90;;;14.60;99.90;;;;;;5034499;28;20370;-78
2023/10/31 09:34:17;;;;;;;1.05;1.02;;;14.60;99.90;;;;;;5039114;28;20115;-78
2023/10/31 09:36:43;;;;;;;1.30;0.57;;;14.40;99.90;;;;;;5039756;28;20071;-78
2023/10/31 09:39:09;;;;;;;2.03;0.70;;;14.40;99.90;;;;;;5038659;28;20519;-78
2023/10/31 09:41:35;;;;;;;0.50;0.40;;;14.50;99.90;;;;;;5041311;28;20026;-78
2023/10/31 09:44:00;;;;;;;0.82;0.70;;;14.50;99.90;;;;;;5039276;28;20028;-79
2023/10/31 09:46:28;;;;;;;0.85;0.73;;;14.60;99.90;;;;;;5037870;28;20477;-78
2023/10/31 09:48:55;;;;;;;0.90;0.85;;;14.60;99.90;;;;;;5037546;28;20037;-78
2023/10/31 09:51:21;;;;;;;2.15;1.00;;;14.60;99.90;;;;;;5040945;28;20016;-78
2023/10/31 09:53:47;;;;;;;2.58;0.50;;;14.60;99.90;;;;;;5036671;28;20029;-78
2023/10/31 09:56:14;;;;;;;1.20;0.63;;;14.60;99.90;;;;;;5038570;28;20048;-78
2023/10/31 09:58:41;;;;;;;0.85;0.60;;;14.60;99.90;;;;;;5038734;28;20025;-78
2023/10/31 10:01:07;;;;;;;0.85;0.65;;;14.60;99.90;;;;;;5038834;28;20048;-78
2023/10/31 10:03:33;;;;;;;0.60;0.60;;;14.50;99.90;;;;;;5040790;28;20086;-78
2023/10/31 10:05:59;;;;;;;0.80;0.80;;;14.50;99.90;;;;;;5038316;28;20013;-78
2023/10/31 10:08:24;;;;;;;0.65;0.63;;;14.50;99.90;;;;;;5041512;28;20082;-78
2023/10/31 10:10:51;;;;;;;0.95;0.60;;;14.40;99.90;;;;;;5037201;28;20064;-78
2023/10/31 10:13:18;;;;;;;0.70;0.40;;;14.40;99.90;;;;;;5040241;28;20461;-78
2023/10/31 10:15:54;;;;;;;2.05;0.50;;;14.40;99.90;;;;;;5036495;28;20082;-78
2023/10/31 10:18:31;;;;;;;6.18;1.30;;;14.40;99.90;;;;;;5038035;28;20030;-78
2023/10/31 10:21:01;;;;;;;1.20;0.80;;;14.30;99.90;;;;;;5034320;28;20545;-77
2023/10/31 10:23:27;;;;;;;0.60;0.60;;;14.30;99.90;;;;;;5036057;28;20027;-78
2023/10/31 10:25:54;;;;;;;0.65;0.65;;;14.20;99.90;;;;;;5035985;28;20082;-78
2023/10/31 10:28:20;;;;;;;1.75;1.02;;;14.20;99.90;;;;;;5038611;28;20033;-77
2023/10/31 10:30:49;;;;;;;1.42;1.10;;;14.10;99.90;;;;;;5033536;28;20434;-78
2023/10/31 10:33:15;;;;;;;0.90;0.80;;;14.10;99.90;;;;;;5036312;28;20033;-78
2023/10/31 10:35:42;;;;;;;2.20;0.95;;;14.20;99.90;;;;;;5038854;28;20029;-78
2023/10/31 10:38:19;;;;;;;0.60;0.60;;;14.30;99.90;;;;;;5036084;28;20535;-78
2023/10/31 10:40:48;;;;;;;0.65;0.63;;;14.30;99.90;;;;;;5036482;28;20026;-78
2023/10/31 10:43:25;;;;;;;0.20;0.20;;;14.30;99.90;;;;;;5033291;28;20025;-77
2023/10/31 10:45:57;;;;;;;2.42;0.30;;;14.30;99.90;;;;;;5036561;28;20032;-78
2023/10/31 10:48:24;;;;;;;0.20;0.20;;;14.30;99.90;;;;;;5037262;28;20116;-78
2023/10/31 10:51:31;;;;;;;0.30;0.30;;;14.20;99.90;;;;;;5037777;28;20021;-78
2023/10/31 10:54:32;;;;;;;1.23;0.20;;;14.20;99.90;;;;;;5045655;27;20531;-78
2023/10/31 10:57:27;;;;;;;1.77;0.50;;;14.10;99.90;;;;;;5033447;28;20030;-78
2023/10/31 10:59:58;;;;;;;1.20;0.35;;;14.00;99.90;;;;;;5027873;28;20045;-78
2023/10/31 11:02:25;;;;;;;0.30;0.22;;;13.90;99.90;;;;;;5016293;28;20020;-78
2023/10/31 11:04:52;;;;;;;1.45;0.20;;;13.80;99.90;;;;;;5036850;28;20423;-79
2023/10/31 11:07:20;;;;;;;0.98;0.28;;;13.60;99.90;;;;;;5037760;28;20041;-78
2023/10/31 11:09:47;;;;;;;1.23;0.20;;;13.60;99.90;;;;;;5038779;28;20048;-78
2023/10/31 11:12:13;;;;;;;0.60;0.40;;;13.50;99.90;;;;;;5035880;28;20029;-77
2023/10/31 11:14:41;;;;;;;0.40;0.40;;;13.50;99.90;;;;;;5036997;28;20029;-78
2023/10/31 11:17:16;;;;;;;0.30;0.30;;;13.40;99.90;;;;;;5039104;28;20493;-78
2023/10/31 11:19:42;;;;;;;0.20;0.20;;;13.50;99.90;;;;;;5034202;28;20029;-78
2023/10/31 11:22:10;;;;;;;0.55;0.30;;;13.50;99.90;;;;;;5039354;28;20017;-78
2023/10/31 11:24:41;;;;;;;0.57;0.40;;;13.50;99.90;;;;;;5035933;28;20112;-78
2023/10/31 11:27:07;;;;;;;0.20;0.20;;;13.50;99.90;;;;;;5031733;28;20032;-77
2023/10/31 11:29:36;;;;;;;0.45;0.20;;;13.50;99.90;;;;;;5033347;28;20021;-77
2023/10/31 11:32:03;;;;;;;0.10;0.10;;;13.40;99.90;;;;;;5038631;28;20029;-78
2023/10/31 11:34:30;;;;;;;1.08;0.20;;;13.50;99.90;;;;;;5035132;28;20033;-78
2023/10/31 11:37:24;;;;;;;0.30;0.30;;;13.50;99.90;;;;;;5037781;28;20430;-77
2023/10/31 11:40:15;;;;;;;0.47;0.25;;;13.60;99.90;;;;;;5035113;28;20018;-78
2023/10/31 11:42:50;;;;;;;2.80;0.20;;;13.50;99.90;;;;;;5019508;28;20061;-78
2023/10/31 11:45:36;;;;;;;1.48;0.30;;;13.60;99.90;;;;;;5039544;28;20037;-78
2023/10/31 11:48:06;;;;;;;1.67;0.40;;;13.60;99.90;;;;;;5038488;28;20029;-78
2023/10/31 11:50:33;;;;;;;0.55;0.52;;;13.70;99.90;;;;;;5040586;28;20384;-78
2023/10/31 11:53:13;;;;;;;2.92;1.25;;;13.60;99.90;;;;;;5039988;28;20052;-77
2023/10/31 11:55:48;;;;;;;0.80;0.80;;;13.60;99.90;;;;;;5024975;28;20025;-77
2023/10/31 11:58:30;;;;;;;1.98;0.70;;;13.70;99.90;;;;;;5039654;28;20228;-77
2023/10/31 12:01:07;;;;;;;0.77;0.55;;;13.80;99.90;;;;;;5039753;28;20029;-77
2023/10/31 12:03:42;;;;;;;1.55;0.95;;;13.90;99.90;;;;;;5035553;28;20112;-77
2023/10/31 12:06:10;;;;;;;2.97;1.00;;;13.90;99.90;;;;;;5042198;28;20021;-77
2023/10/31 12:08:35;;;;;;;0.52;0.52;;;14.00;99.90;;;;;;5038185;28;20117;-76
2023/10/31 12:11:08;;;;;;;0.63;0.63;;;14.00;99.90;;;;;;5041870;28;20111;-77
2023/10/31 12:13:39;;;;;;;0.70;0.70;;;14.10;99.90;;;;;;5040322;28;20560;-76
2023/10/31 12:16:06;;;;;;;1.40;1.33;;;14.10;99.90;;;;;;5018291;28;20041;-77
2023/10/31 12:18:36;;;;;;;1.23;1.13;;;14.20;99.90;;;;;;5040167;28;20021;-76
2023/10/31 12:21:03;;;;;;;1.33;1.20;;;14.30;99.90;;;;;;5037929;28;20025;-76
2023/10/31 12:23:28;;;;;;;2.08;1.88;;;14.30;99.90;;;;;;5037702;28;20017;-77
2023/10/31 12:25:55;;;;;;;1.23;1.10;;;14.40;99.90;;;;;;5040761;28;20025;-76
2023/10/31 12:28:25;;;;;;;0.63;0.63;;;14.40;99.90;;;;;;5036242;28;20037;-77
2023/10/31 12:30:55;;;;;;;0.38;0.38;;;14.50;99.90;;;;;;5035796;28;20045;-77
2023/10/31 12:33:24;;;;;;;1.52;0.98;;;14.50;99.90;;;;;;5035282;28;20025;-77
2023/10/31 12:35:52;;;;;;;0.82;0.55;;;14.60;99.90;;;;;;5039567;28;20043;-77
2023/10/31 12:38:18;;;;;;;0.80;0.80;;;14.60;99.90;;;;;;5041304;28;20041;-77
2023/10/31 12:40:44;;;;;;;1.35;0.80;;;14.60;99.90;;;;;;5037525;28;20465;-77
2023/10/31 12:43:10;;;;;;;1.58;1.48;;;14.70;99.90;;;;;;5041536;28;20484;-77